DLH14A EBLG-EDDL
Flight info
| Callsign | DLH14A |
|---|---|
| Flight time | N/A |
| Altitude | 17000 |
| Route | LNO M170 NVO T857 BIKMU BIKMU1A |
| Aircraft | A320/M-SDE3FGHIRWY/LB1 |
Departure
| Time | 2026-04-21 05:25 |
|---|---|
| Airport | Liège Airport (EBLG) |
Arrival
| Time | N/A |
|---|---|
| Airport | Düsseldorf Airport (EDDL) |
| Time | Latitude | Longitude | Altitude | Speed | Heading |
|---|---|---|---|---|---|
| 2026-04-21 05:19 | 50.63607 | 5.43273 | 635 ft | 2 kts | 282° |
| 2026-04-21 05:20 | 50.63606 | 5.43286 | 632 ft | 1 kts | 280° |
| 2026-04-21 05:20 | 50.63606 | 5.43288 | 632 ft | 1 kts | 280° |
| 2026-04-21 05:21 | 50.63604 | 5.43274 | 633 ft | 2 kts | 249° |
| 2026-04-21 05:21 | 50.63589 | 5.43259 | 631 ft | 4 kts | 217° |
| 2026-04-21 05:22 | 50.63553 | 5.43215 | 634 ft | 8 kts | 217° |
| 2026-04-21 05:22 | 50.63513 | 5.43168 | 639 ft | 6 kts | 217° |
| 2026-04-21 05:22 | 50.63487 | 5.43138 | 632 ft | 4 kts | 214° |
| 2026-04-21 05:22 | 50.63446 | 5.43086 | 634 ft | 11 kts | 224° |
| 2026-04-21 05:23 | 50.63370 | 5.42980 | 638 ft | 16 kts | 211° |
| 2026-04-21 05:23 | 50.63303 | 5.42932 | 637 ft | 16 kts | 204° |
| 2026-04-21 05:23 | 50.63208 | 5.42885 | 638 ft | 13 kts | 171° |
| 2026-04-21 05:23 | 50.63139 | 5.42946 | 641 ft | 11 kts | 132° |
| 2026-04-21 05:24 | 50.63139 | 5.43040 | 637 ft | 10 kts | 45° |
| 2026-04-21 05:24 | 50.63151 | 5.43056 | 635 ft | 0 kts | 41° |
| 2026-04-21 05:24 | 50.63157 | 5.43065 | 639 ft | 4 kts | 43° |
| 2026-04-21 05:24 | 50.63234 | 5.43184 | 633 ft | 41 kts | 44° |
| 2026-04-21 05:25 | 50.63613 | 5.43779 | 620 ft | 109 kts | 46° |
| 2026-04-21 05:25 | 50.64279 | 5.44829 | 621 ft | 157 kts | 45° |
| 2026-04-21 05:25 | 50.65062 | 5.46073 | 1172 ft | 157 kts | 45° |
| 2026-04-21 05:25 | 50.65797 | 5.47267 | 1977 ft | 149 kts | 51° |
| 2026-04-21 05:26 | 50.66301 | 5.48650 | 2696 ft | 143 kts | 71° |
| 2026-04-21 05:26 | 50.66387 | 5.50212 | 3208 ft | 151 kts | 104° |
| 2026-04-21 05:26 | 50.65879 | 5.51722 | 3639 ft | 163 kts | 119° |
| 2026-04-21 05:26 | 50.65261 | 5.53335 | 3997 ft | 180 kts | 118° |
| 2026-04-21 05:27 | 50.64590 | 5.55105 | 4384 ft | 197 kts | 118° |
| 2026-04-21 05:27 | 50.63854 | 5.57061 | 4777 ft | 217 kts | 118° |
| 2026-04-21 05:27 | 50.63056 | 5.59182 | 5276 ft | 234 kts | 119° |
| 2026-04-21 05:27 | 50.62195 | 5.61467 | 5812 ft | 251 kts | 119° |
| 2026-04-21 05:28 | 50.61283 | 5.63882 | 6536 ft | 260 kts | 119° |
| 2026-04-21 05:28 | 50.60356 | 5.66332 | 7395 ft | 262 kts | 118° |
| 2026-04-21 05:28 | 50.59559 | 5.68901 | 8015 ft | 261 kts | 106° |
| 2026-04-21 05:28 | 50.59260 | 5.71669 | 8190 ft | 260 kts | 90° |
| 2026-04-21 05:29 | 50.59491 | 5.74477 | 8226 ft | 260 kts | 74° |
| 2026-04-21 05:29 | 50.60154 | 5.77128 | 8233 ft | 260 kts | 68° |
| 2026-04-21 05:29 | 50.60854 | 5.79755 | 8228 ft | 260 kts | 68° |
| 2026-04-21 05:29 | 50.62851 | 5.87714 | 7947 ft | 257 kts | 69° |
| 2026-04-21 05:30 | 50.70316 | 6.10101 | 9242 ft | 274 kts | 41° |
| 2026-04-21 05:30 | 50.75946 | 6.15030 | 9571 ft | 267 kts | 38° |
| 2026-04-21 05:30 | 50.79002 | 6.23766 | 8881 ft | 261 kts | 107° |
| 2026-04-21 05:30 | 50.78238 | 6.26674 | 8832 ft | 272 kts | 111° |
| 2026-04-21 05:31 | 50.76535 | 6.32999 | 8467 ft | 262 kts | 110° |
| 2026-04-21 05:31 | 50.75757 | 6.39197 | 8141 ft | 223 kts | 79° |
| 2026-04-21 05:31 | 50.77308 | 6.45846 | 8129 ft | 248 kts | 64° |
| 2026-04-21 05:31 | 50.79754 | 6.53663 | 8257 ft | 254 kts | 66° |
| 2026-04-21 05:32 | 50.80491 | 6.56339 | 8122 ft | 270 kts | 68° |
| 2026-04-21 05:32 | 50.81198 | 6.59075 | 7989 ft | 265 kts | 66° |
| 2026-04-21 05:32 | 50.82181 | 6.61471 | 7786 ft | 257 kts | 50° |
| 2026-04-21 05:32 | 50.83525 | 6.63231 | 7408 ft | 258 kts | 33° |
| 2026-04-21 05:33 | 50.85202 | 6.64275 | 6984 ft | 262 kts | 16° |
| 2026-04-21 05:33 | 50.87020 | 6.64675 | 6529 ft | 264 kts | 12° |
| 2026-04-21 05:33 | 50.88842 | 6.65049 | 6251 ft | 265 kts | 12° |
| 2026-04-21 05:33 | 50.90665 | 6.65437 | 6240 ft | 265 kts | 12° |
| 2026-04-21 05:34 | 50.93450 | 6.66002 | 6167 ft | 267 kts | 9° |
| 2026-04-21 05:34 | 50.99119 | 6.66771 | 4979 ft | 258 kts | 13° |
| 2026-04-21 05:34 | 51.02964 | 6.67949 | 3698 ft | 253 kts | 7° |
| 2026-04-21 05:34 | 51.07521 | 6.67730 | 2971 ft | 228 kts | 360° |
| 2026-04-21 05:35 | 51.10035 | 6.67654 | 3145 ft | 192 kts | 10° |
| 2026-04-21 05:35 | 51.11374 | 6.67850 | 3677 ft | 208 kts | 0° |
| 2026-04-21 05:35 | 51.12785 | 6.66916 | 3560 ft | 235 kts | 318° |
| 2026-04-21 05:35 | 51.13786 | 6.64850 | 3424 ft | 234 kts | 306° |
| 2026-04-21 05:36 | 51.14692 | 6.62763 | 3290 ft | 225 kts | 306° |
| 2026-04-21 05:36 | 51.15727 | 6.60772 | 3121 ft | 218 kts | 320° |
| 2026-04-21 05:36 | 51.17812 | 6.58080 | 2796 ft | 212 kts | 339° |
| 2026-04-21 05:36 | 51.19202 | 6.57899 | 2597 ft | 201 kts | 23° |
| 2026-04-21 05:37 | 51.20329 | 6.59069 | 2530 ft | 193 kts | 53° |
| 2026-04-21 05:37 | 51.21084 | 6.60723 | 2518 ft | 177 kts | 57° |
| 2026-04-21 05:37 | 51.21800 | 6.62261 | 2428 ft | 168 kts | 56° |
| 2026-04-21 05:37 | 51.22494 | 6.63721 | 2218 ft | 163 kts | 55° |
| 2026-04-21 05:38 | 51.23198 | 6.65133 | 1943 ft | 159 kts | 54° |
| 2026-04-21 05:38 | 51.23841 | 6.66435 | 1835 ft | 142 kts | 55° |
| 2026-04-21 05:38 | 51.24435 | 6.67672 | 1548 ft | 139 kts | 55° |
| 2026-04-21 05:38 | 51.24973 | 6.68840 | 1419 ft | 122 kts | 57° |
| 2026-04-21 05:39 | 51.25432 | 6.69859 | 1152 ft | 125 kts | 56° |
| 2026-04-21 05:39 | 51.25944 | 6.70980 | 871 ft | 131 kts | 51° |
| 2026-04-21 05:39 | 51.26509 | 6.72131 | 684 ft | 132 kts | 52° |
| 2026-04-21 05:40 | 51.27053 | 6.73298 | 511 ft | 129 kts | 52° |
| 2026-04-21 05:40 | 51.27593 | 6.74442 | 294 ft | 129 kts | 51° |
| 2026-04-21 05:40 | 51.28122 | 6.75538 | 139 ft | 118 kts | 51° |